createdAt,value
2018-10-02T00:01:48.428Z,12.97
2018-10-02T00:04:16.232Z,13.13
2018-10-02T00:06:44.014Z,13.67
2018-10-02T00:09:12.684Z,13.40
2018-10-02T00:11:45.999Z,13.97
2018-10-02T00:14:19.258Z,13.67
2018-10-02T00:16:47.186Z,14.00
2018-10-02T00:19:14.925Z,14.40
2018-10-02T00:21:42.809Z,15.30
2018-10-02T00:24:10.539Z,15.97
2018-10-02T00:26:38.290Z,16.53
2018-10-02T00:29:06.003Z,16.50
2018-10-02T00:31:34.022Z,16.70
2018-10-02T00:34:01.614Z,16.83
2018-10-02T00:36:29.355Z,16.00
2018-10-02T00:38:57.160Z,16.30
2018-10-02T00:41:24.899Z,17.23
2018-10-02T00:43:52.675Z,16.67
2018-10-02T00:46:20.435Z,16.63
2018-10-02T00:48:49.158Z,16.73
2018-10-02T00:51:16.963Z,18.90
2018-10-02T00:53:44.726Z,16.53
2018-10-02T00:56:12.519Z,17.17
2018-10-02T00:58:40.251Z,21.37
2018-10-02T01:01:08.053Z,17.83
2018-10-02T01:03:35.818Z,18.63
2018-10-02T01:06:03.560Z,18.20
2018-10-02T01:08:31.354Z,21.37
2018-10-02T01:10:59.066Z,19.37
2018-10-02T01:13:26.863Z,16.77
2018-10-02T01:15:54.598Z,18.07
2018-10-02T01:18:22.322Z,16.23
2018-10-02T01:20:50.058Z,20.77
2018-10-02T01:23:17.774Z,16.83
2018-10-02T01:25:45.504Z,16.87
2018-10-02T01:28:13.199Z,17.03
2018-10-02T01:30:40.952Z,16.23
2018-10-02T01:33:08.759Z,15.33
2018-10-02T01:35:36.491Z,16.50
2018-10-02T01:38:04.270Z,18.60
2018-10-02T01:40:32.039Z,19.63
2018-10-02T01:42:59.791Z,21.43
2018-10-02T01:45:27.499Z,20.47
2018-10-02T01:47:55.254Z,23.97
2018-10-02T01:50:23.021Z,24.67
2018-10-02T01:52:50.748Z,23.90
2018-10-02T01:55:18.534Z,25.30
2018-10-02T01:57:46.298Z,26.77
2018-10-02T02:00:14.099Z,27.23
2018-10-02T02:02:41.881Z,25.60
2018-10-02T02:05:09.647Z,23.33
2018-10-02T02:07:37.382Z,23.60
2018-10-02T02:10:05.509Z,23.23
2018-10-02T02:12:33.622Z,23.93
2018-10-02T02:15:01.652Z,23.50
2018-10-02T02:17:29.437Z,24.27
2018-10-02T02:19:57.258Z,24.03
2018-10-02T02:22:25.066Z,23.63
2018-10-02T02:24:52.851Z,24.03
2018-10-02T02:27:20.633Z,24.10
2018-10-02T02:29:48.847Z,23.17
2018-10-02T02:32:16.597Z,20.70
2018-10-02T02:34:44.378Z,20.13
2018-10-02T02:37:12.181Z,19.50
2018-10-02T02:39:39.895Z,18.43
2018-10-02T02:42:07.651Z,18.87
2018-10-02T02:44:35.451Z,18.57
2018-10-02T02:47:08.707Z,18.80
2018-10-02T02:49:41.860Z,18.07
2018-10-02T02:52:09.985Z,19.10
2018-10-02T02:54:37.789Z,20.00
2018-10-02T02:57:05.435Z,19.07
2018-10-02T02:59:33.254Z,19.93
2018-10-02T03:02:01.063Z,19.90
2018-10-02T03:04:28.821Z,19.80
2018-10-02T03:06:56.562Z,20.83
2018-10-02T03:09:24.274Z,23.13
2018-10-02T03:11:52.034Z,23.83
2018-10-02T03:14:21.905Z,22.13
2018-10-02T03:16:49.955Z,24.53
2018-10-02T03:19:17.775Z,24.30
2018-10-02T03:21:45.559Z,22.07
2018-10-02T03:24:13.288Z,21.53
2018-10-02T03:26:41.050Z,20.80
2018-10-02T03:29:08.907Z,21.33
2018-10-02T03:31:36.599Z,21.33
2018-10-02T03:34:04.404Z,20.07
2018-10-02T03:36:32.094Z,21.13
2018-10-02T03:38:59.870Z,21.23
2018-10-02T03:41:27.736Z,21.80
2018-10-02T03:43:55.495Z,22.00
2018-10-02T03:46:23.384Z,23.13
2018-10-02T03:48:51.187Z,22.13
2018-10-02T03:51:18.911Z,23.93
2018-10-02T03:53:46.711Z,22.53
2018-10-02T03:56:14.474Z,22.80
2018-10-02T03:58:42.244Z,23.83
2018-10-02T04:01:09.999Z,25.17
2018-10-02T04:03:37.891Z,24.03
2018-10-02T04:06:05.608Z,26.87
2018-10-02T04:08:33.375Z,26.20
2018-10-02T04:11:01.167Z,25.60
2018-10-02T04:13:28.947Z,25.10
2018-10-02T04:15:56.707Z,22.83
2018-10-02T04:18:24.558Z,25.03
2018-10-02T04:20:52.381Z,28.10
2018-10-02T04:23:20.112Z,27.47
2018-10-02T04:25:47.842Z,27.47
2018-10-02T04:28:15.545Z,28.73
2018-10-02T04:30:43.287Z,24.90
2018-10-02T04:33:11.088Z,26.73
2018-10-02T04:35:38.838Z,25.40
2018-10-02T04:38:06.668Z,24.57
2018-10-02T04:40:34.439Z,24.23
2018-10-02T04:43:02.183Z,22.67
2018-10-02T04:45:29.960Z,22.87
2018-10-02T04:47:57.767Z,22.43
2018-10-02T04:50:25.802Z,25.00
2018-10-02T04:52:54.076Z,25.73
2018-10-02T04:55:21.866Z,25.97
2018-10-02T04:57:49.675Z,24.40
2018-10-02T05:00:17.555Z,25.70
2018-10-02T05:02:45.302Z,32.40
2018-10-02T05:05:13.094Z,28.00
2018-10-02T05:07:40.848Z,24.57
2018-10-02T05:10:08.635Z,25.10
2018-10-02T05:12:36.469Z,25.77
2018-10-02T05:15:04.415Z,26.90
2018-10-02T05:17:32.215Z,25.60
2018-10-02T05:19:59.922Z,25.93
2018-10-02T05:22:27.703Z,27.10
2018-10-02T05:24:55.512Z,24.27
2018-10-02T05:27:23.458Z,23.40
2018-10-02T05:29:51.138Z,24.37
2018-10-02T05:32:18.975Z,23.60
2018-10-02T05:34:46.769Z,25.27
2018-10-02T05:37:14.570Z,23.97
2018-10-02T05:39:42.279Z,23.53
2018-10-02T05:42:10.157Z,24.57
2018-10-02T05:44:37.890Z,24.60
2018-10-02T05:47:05.707Z,25.43
2018-10-02T05:49:33.915Z,27.70
2018-10-02T05:52:01.728Z,32.33
2018-10-02T05:54:29.455Z,27.30
2018-10-02T05:56:57.172Z,28.73
2018-10-02T05:59:24.871Z,24.43
2018-10-02T06:01:53.184Z,22.07
2018-10-02T06:04:20.939Z,22.47
2018-10-02T06:06:48.651Z,22.60
2018-10-02T06:09:16.468Z,24.13
2018-10-02T06:11:44.219Z,23.27
2018-10-02T06:14:12.007Z,23.33
2018-10-02T06:16:40.243Z,19.73
2018-10-02T06:19:07.999Z,19.23
2018-10-02T06:21:35.808Z,21.03
2018-10-02T06:24:03.647Z,22.07
2018-10-02T06:26:31.457Z,22.10
2018-10-02T06:28:59.203Z,22.87
2018-10-02T06:31:26.894Z,20.90
2018-10-02T06:33:54.747Z,21.53
2018-10-02T06:36:22.532Z,18.63
2018-10-02T06:38:50.401Z,20.37
2018-10-02T06:41:18.086Z,21.53
2018-10-02T06:43:45.906Z,18.70
2018-10-02T06:46:13.680Z,20.23
2018-10-02T06:48:41.448Z,17.90
2018-10-02T06:51:09.438Z,16.20
2018-10-02T06:53:37.134Z,16.80
2018-10-02T06:56:04.923Z,18.27
2018-10-02T06:58:32.689Z,16.50
2018-10-02T07:01:00.407Z,18.33
2018-10-02T07:03:28.148Z,16.83
2018-10-02T07:05:55.928Z,18.13
2018-10-02T07:08:23.679Z,17.40
2018-10-02T07:10:51.457Z,17.20
2018-10-02T07:13:19.162Z,17.30
2018-10-02T07:15:46.907Z,16.10
2018-10-02T07:18:14.715Z,16.53
2018-10-02T07:20:42.494Z,16.20
2018-10-02T07:23:10.295Z,16.27
2018-10-02T07:25:38.054Z,15.03
2018-10-02T07:28:05.994Z,14.20
2018-10-02T07:30:33.739Z,15.53
2018-10-02T07:33:01.644Z,13.83
2018-10-02T07:35:29.340Z,14.33
2018-10-02T07:37:57.147Z,14.93
2018-10-02T07:40:24.975Z,14.07
2018-10-02T07:42:52.687Z,15.20
2018-10-02T07:45:20.480Z,13.97
2018-10-02T07:47:48.207Z,16.53
2018-10-02T07:50:16.002Z,14.30
2018-10-02T07:52:43.959Z,13.37
2018-10-02T07:55:11.736Z,13.50
2018-10-02T07:57:39.469Z,14.13
2018-10-02T08:00:07.516Z,13.13
2018-10-02T08:02:35.349Z,12.97
2018-10-02T08:05:03.277Z,13.17
2018-10-02T08:07:30.987Z,13.17
2018-10-02T08:09:58.775Z,13.30
2018-10-02T08:12:26.641Z,12.33
2018-10-02T08:14:54.521Z,12.23
2018-10-02T08:17:22.316Z,13.30
2018-10-02T08:19:50.023Z,12.53
2018-10-02T08:22:17.874Z,13.27
2018-10-02T08:24:45.566Z,12.70
2018-10-02T08:27:13.337Z,12.97
2018-10-02T08:29:41.161Z,13.70
2018-10-02T08:32:08.799Z,14.37
2018-10-02T08:34:36.483Z,13.73
2018-10-02T08:37:04.281Z,15.10
2018-10-02T08:39:32.007Z,14.37
2018-10-02T08:41:59.788Z,13.20
2018-10-02T08:44:27.595Z,13.33
2018-10-02T08:46:56.074Z,12.63
2018-10-02T08:49:23.839Z,14.93
2018-10-02T08:51:51.737Z,13.63
2018-10-02T08:54:19.540Z,14.20
2018-10-02T08:56:47.369Z,15.13
2018-10-02T08:59:15.180Z,15.47
2018-10-02T09:01:42.874Z,17.87
2018-10-02T09:04:10.611Z,17.40
2018-10-02T09:06:38.442Z,18.30
2018-10-02T09:09:09.275Z,26.30
2018-10-02T09:11:37.083Z,23.60
2018-10-02T09:14:04.923Z,21.40
2018-10-02T09:16:32.767Z,23.13
2018-10-02T09:19:00.634Z,22.07
2018-10-02T09:21:28.413Z,20.00
2018-10-02T09:23:56.244Z,21.33
2018-10-02T09:26:24.056Z,20.57
2018-10-02T09:28:51.822Z,17.60
2018-10-02T09:31:25.131Z,15.83
2018-10-02T09:33:58.631Z,17.10
2018-10-02T09:36:31.903Z,13.40
2018-10-02T09:39:05.111Z,11.87
2018-10-02T09:41:38.341Z,10.93
2018-10-02T09:44:06.577Z,10.00
2018-10-02T09:46:34.387Z,10.83
2018-10-02T09:49:02.306Z,9.97
2018-10-02T09:51:30.091Z,9.13
2018-10-02T09:53:57.838Z,9.93
2018-10-02T09:56:30.191Z,8.33
2018-10-02T09:58:58.067Z,7.40
2018-10-02T10:02:35.299Z,8.90
2018-10-02T10:05:03.036Z,8.37
2018-10-02T10:07:30.784Z,6.93
2018-10-02T10:09:58.544Z,7.77
2018-10-02T10:12:26.316Z,7.90
2018-10-02T10:14:54.089Z,6.53
2018-10-02T10:17:21.983Z,6.70
2018-10-02T10:19:49.754Z,6.90
2018-10-02T10:22:17.543Z,6.53
2018-10-02T10:24:45.359Z,6.40
2018-10-02T10:27:13.087Z,5.27
2018-10-02T10:29:40.862Z,6.43
2018-10-02T10:32:08.955Z,6.30
2018-10-02T10:34:36.828Z,4.60
2018-10-02T10:37:04.580Z,4.33
2018-10-02T10:39:32.451Z,4.10
2018-10-02T10:42:00.203Z,4.33
2018-10-02T10:44:27.962Z,4.07
2018-10-02T10:46:55.850Z,4.97
2018-10-02T10:49:23.661Z,5.50
2018-10-02T10:51:51.448Z,4.47
2018-10-02T10:54:19.200Z,4.67
2018-10-02T10:56:47.112Z,4.80
2018-10-02T10:59:14.907Z,4.17
2018-10-02T11:01:42.739Z,3.90
2018-10-02T11:04:10.474Z,3.93
2018-10-02T11:06:38.242Z,3.83
2018-10-02T11:09:08.027Z,4.30
2018-10-02T11:11:35.807Z,4.23
2018-10-02T11:14:03.663Z,4.30
2018-10-02T11:16:31.396Z,4.60
2018-10-02T11:18:59.196Z,4.27
2018-10-02T11:21:27.025Z,4.33
2018-10-02T11:23:54.811Z,4.30
2018-10-02T11:26:22.531Z,3.80
2018-10-02T11:28:50.299Z,4.10
2018-10-02T11:31:18.099Z,3.90
2018-10-02T11:33:45.806Z,3.90
2018-10-02T11:36:13.660Z,4.20
2018-10-02T11:38:41.423Z,3.60
2018-10-02T11:41:09.191Z,3.50
2018-10-02T11:43:37.007Z,3.70
2018-10-02T11:46:04.746Z,4.00
2018-10-02T11:48:32.523Z,4.37
2018-10-02T11:51:00.325Z,4.10
2018-10-02T11:53:28.091Z,5.30
2018-10-02T11:55:55.833Z,4.77
2018-10-02T11:58:23.653Z,4.10
2018-10-02T12:00:51.547Z,3.90
2018-10-02T12:03:19.254Z,3.90
2018-10-02T12:05:47.112Z,4.43
2018-10-02T12:08:14.912Z,4.23
2018-10-02T12:10:42.648Z,4.53
2018-10-02T12:13:10.434Z,4.17
2018-10-02T12:15:38.268Z,4.03
2018-10-02T12:18:06.073Z,4.00
2018-10-02T12:20:33.811Z,4.10
2018-10-02T12:23:01.641Z,3.87
2018-10-02T12:25:29.427Z,4.60
2018-10-02T12:27:57.223Z,3.80
2018-10-02T12:30:24.983Z,3.90
2018-10-02T12:32:52.799Z,3.87
2018-10-02T12:35:20.572Z,3.90
2018-10-02T12:37:49.450Z,3.87
2018-10-02T12:40:17.195Z,3.93
2018-10-02T12:42:44.899Z,3.50
2018-10-02T12:45:12.671Z,3.40
2018-10-02T12:47:40.426Z,3.70
2018-10-02T12:50:08.292Z,3.33
2018-10-02T12:52:36.206Z,3.50
2018-10-02T12:55:04.064Z,3.80
2018-10-02T12:57:31.826Z,4.00
2018-10-02T12:59:59.619Z,3.33
2018-10-02T13:02:27.340Z,3.50
2018-10-02T13:04:55.147Z,3.70
2018-10-02T13:07:22.883Z,3.60
2018-10-02T13:09:50.654Z,4.07
2018-10-02T13:12:18.407Z,3.80
2018-10-02T13:14:46.190Z,3.50
2018-10-02T13:17:13.964Z,3.30
2018-10-02T13:19:41.724Z,3.67
2018-10-02T13:22:09.511Z,3.67
2018-10-02T13:24:37.322Z,3.70
2018-10-02T13:27:05.119Z,4.07
2018-10-02T13:29:32.853Z,3.50
2018-10-02T13:32:00.572Z,3.50
2018-10-02T13:34:28.422Z,3.53
2018-10-02T13:36:56.319Z,3.87
2018-10-02T13:39:24.117Z,4.00
2018-10-02T13:41:51.878Z,3.70
2018-10-02T13:44:19.691Z,3.60
2018-10-02T13:46:47.471Z,3.77
2018-10-02T13:49:15.222Z,3.40
2018-10-02T13:51:43.015Z,3.10
2018-10-02T13:54:10.780Z,3.07
2018-10-02T13:56:38.754Z,4.13
2018-10-02T13:59:06.827Z,4.00
2018-10-02T14:01:34.588Z,3.67
2018-10-02T14:04:02.435Z,3.70
2018-10-02T14:06:30.178Z,3.37
2018-10-02T14:08:57.906Z,3.57
2018-10-02T14:11:25.711Z,3.70
2018-10-02T14:13:53.541Z,3.57
2018-10-02T14:16:21.582Z,4.00
2018-10-02T14:18:49.583Z,3.20
2018-10-02T14:21:17.470Z,3.20
2018-10-02T14:23:45.261Z,3.47
2018-10-02T14:26:13.053Z,3.50
2018-10-02T14:28:40.891Z,3.60
2018-10-02T14:31:08.685Z,3.23
2018-10-02T14:33:36.402Z,3.55
2018-10-02T14:36:05.468Z,3.25
2018-10-02T14:38:33.179Z,3.70
2018-10-02T14:41:00.907Z,3.67
2018-10-02T14:43:28.719Z,4.10
2018-10-02T14:45:56.564Z,3.60
2018-10-02T14:48:24.883Z,3.93
2018-10-02T14:50:52.678Z,3.50
2018-10-02T14:53:20.455Z,3.40
2018-10-02T14:55:48.227Z,4.27
2018-10-02T14:58:16.006Z,4.20
2018-10-02T15:00:43.803Z,4.67
2018-10-02T15:03:11.687Z,3.77
2018-10-02T15:05:39.536Z,4.53
2018-10-02T15:08:07.279Z,4.23
2018-10-02T15:10:35.033Z,3.70
2018-10-02T15:13:02.759Z,5.07
2018-10-02T15:15:30.543Z,4.13
2018-10-02T15:17:58.344Z,4.43
2018-10-02T15:20:26.157Z,4.60
2018-10-02T15:22:53.915Z,7.17
2018-10-02T15:25:21.653Z,5.37
2018-10-02T15:27:49.490Z,5.50
2018-10-02T15:30:17.281Z,5.13
2018-10-02T15:32:45.058Z,10.33
2018-10-02T15:35:12.915Z,6.83
2018-10-02T15:37:40.796Z,5.60
2018-10-02T15:40:08.691Z,8.67
2018-10-02T15:42:36.547Z,10.57
2018-10-02T15:45:04.588Z,9.83
2018-10-02T15:47:32.395Z,8.63
2018-10-02T15:50:00.225Z,18.03
2018-10-02T15:52:28.076Z,23.10
2018-10-02T15:54:55.890Z,23.43
2018-10-02T15:57:23.752Z,8.33
2018-10-02T15:59:51.534Z,7.50
2018-10-02T16:02:19.305Z,6.20
2018-10-02T16:04:47.113Z,7.40
2018-10-02T16:07:14.882Z,10.93
2018-10-02T16:09:42.816Z,13.77
2018-10-02T16:12:10.642Z,11.87
2018-10-02T16:14:38.427Z,13.67
2018-10-02T16:17:06.520Z,10.40
2018-10-02T16:19:34.308Z,12.73
2018-10-02T16:22:02.192Z,13.00
2018-10-02T16:24:29.848Z,8.17
2018-10-02T16:26:57.611Z,10.00
2018-10-02T16:29:25.424Z,10.80
2018-10-02T16:31:53.177Z,14.73
2018-10-02T16:34:21.029Z,11.30
2018-10-02T16:36:48.747Z,8.67
2018-10-02T16:39:16.542Z,7.27
2018-10-02T16:41:44.367Z,7.37
2018-10-02T16:44:12.166Z,7.80
2018-10-02T16:46:39.931Z,8.57
2018-10-02T16:49:07.871Z,9.43
2018-10-02T16:51:35.651Z,9.70
2018-10-02T16:54:03.371Z,10.73
2018-10-02T16:56:31.179Z,10.30
2018-10-02T16:58:58.968Z,11.70
2018-10-02T17:01:26.811Z,10.07
2018-10-02T17:03:54.620Z,7.70
2018-10-02T17:06:22.415Z,6.90
2018-10-02T17:08:50.190Z,8.83
2018-10-02T17:11:18.078Z,8.67
2018-10-02T17:13:45.820Z,8.00
2018-10-02T17:16:13.524Z,8.97
2018-10-02T17:18:41.559Z,10.07
2018-10-02T17:21:09.343Z,13.00
2018-10-02T17:23:37.011Z,13.20
2018-10-02T17:26:04.787Z,10.43
2018-10-02T17:28:32.531Z,12.67
2018-10-02T17:31:00.277Z,12.23
2018-10-02T17:33:28.077Z,8.67
2018-10-02T17:35:55.835Z,11.03
2018-10-02T17:38:23.510Z,10.90
2018-10-02T17:40:51.264Z,8.60
2018-10-02T17:43:19.067Z,9.27
2018-10-02T17:45:46.808Z,13.40
2018-10-02T17:48:14.636Z,9.17
2018-10-02T17:50:42.456Z,8.33
2018-10-02T17:53:10.203Z,8.30
2018-10-02T17:55:38.007Z,9.07
2018-10-02T17:58:06.393Z,8.33
2018-10-02T18:00:34.283Z,6.90
2018-10-02T18:03:02.056Z,8.53
2018-10-02T18:05:29.790Z,13.77
2018-10-02T18:07:57.522Z,14.67
2018-10-02T18:10:25.360Z,13.13
2018-10-02T18:12:53.288Z,13.10
2018-10-02T18:15:21.026Z,15.53
2018-10-02T18:17:48.788Z,17.33
2018-10-02T18:20:16.618Z,21.87
2018-10-02T18:22:44.378Z,15.63
2018-10-02T18:25:12.205Z,18.57
2018-10-02T18:27:40.116Z,11.70
2018-10-02T18:30:07.984Z,11.20
2018-10-02T18:32:35.815Z,9.87
2018-10-02T18:35:03.607Z,8.80
2018-10-02T18:37:31.546Z,8.60
2018-10-02T18:39:59.311Z,9.80
2018-10-02T18:42:27.151Z,13.87
2018-10-02T18:44:54.947Z,11.40
2018-10-02T18:47:22.727Z,13.53
2018-10-02T18:49:50.485Z,14.90
2018-10-02T18:52:18.316Z,15.37
2018-10-02T18:54:46.200Z,11.70
2018-10-02T18:57:13.963Z,10.40
2018-10-02T18:59:41.868Z,11.00
2018-10-02T19:02:09.948Z,8.47
2018-10-02T19:04:37.924Z,7.73
2018-10-02T19:07:05.757Z,8.90
2018-10-02T19:09:34.252Z,9.20
2018-10-02T19:12:07.551Z,9.00
2018-10-02T19:14:35.459Z,10.47
2018-10-02T19:17:03.621Z,8.73
2018-10-02T19:19:36.989Z,8.20
2018-10-02T19:22:04.779Z,8.97
2018-10-02T19:24:32.616Z,9.13
2018-10-02T19:27:00.435Z,5.40
2018-10-02T19:29:28.224Z,6.97
2018-10-02T19:32:01.696Z,7.83
2018-10-02T19:34:29.521Z,10.20
2018-10-02T19:36:58.848Z,10.37
2018-10-02T19:39:28.255Z,9.83
2018-10-02T19:41:56.352Z,8.37
2018-10-02T19:44:24.091Z,8.00
2018-10-02T19:46:55.356Z,9.33
2018-10-02T19:49:24.703Z,6.97
2018-10-02T19:52:11.515Z,6.13
2018-10-02T19:54:40.343Z,7.37
2018-10-02T19:57:09.440Z,7.00
2018-10-02T19:59:37.272Z,7.13
2018-10-02T20:02:05.020Z,7.00
2018-10-02T20:04:32.747Z,7.27
2018-10-02T20:07:00.558Z,6.87
2018-10-02T20:09:28.375Z,6.83
2018-10-02T20:11:56.199Z,6.80
2018-10-02T20:14:24.749Z,7.90
2018-10-02T20:16:52.482Z,8.73
2018-10-02T20:19:20.264Z,8.57
2018-10-02T20:21:48.019Z,9.00
2018-10-02T20:24:15.731Z,8.97
2018-10-02T20:26:43.456Z,9.07
2018-10-02T20:29:11.273Z,8.00
2018-10-02T20:31:41.867Z,8.73
2018-10-02T20:34:09.626Z,8.13
2018-10-02T20:36:37.473Z,8.13
2018-10-02T20:39:07.319Z,8.60
2018-10-02T20:41:35.138Z,7.80
2018-10-02T20:44:03.030Z,8.13
2018-10-02T20:46:30.829Z,8.17
2018-10-02T20:48:58.653Z,7.43
2018-10-02T20:51:26.528Z,7.70
2018-10-02T20:53:54.379Z,8.10
2018-10-02T20:56:22.195Z,7.70
2018-10-02T20:58:50.027Z,7.57
2018-10-02T21:01:17.732Z,7.93
2018-10-02T21:03:45.535Z,7.87
2018-10-02T21:06:13.338Z,8.00
2018-10-02T21:08:41.091Z,7.47
2018-10-02T21:11:08.835Z,7.60
2018-10-02T21:13:36.667Z,7.30
2018-10-02T21:16:04.639Z,8.50
2018-10-02T21:18:32.523Z,7.63
2018-10-02T21:21:00.346Z,7.23
2018-10-02T21:23:28.148Z,7.03
2018-10-02T21:25:56.201Z,7.27
2018-10-02T21:28:24.425Z,7.07
2018-10-02T21:30:52.218Z,6.77
2018-10-02T21:33:20.008Z,6.40
2018-10-02T21:35:47.940Z,6.43
2018-10-02T21:38:15.732Z,6.70
2018-10-02T21:40:43.567Z,7.10
2018-10-02T21:43:11.396Z,6.47
2018-10-02T21:45:39.131Z,7.17
2018-10-02T21:48:06.903Z,7.00
2018-10-02T21:50:34.683Z,7.30
2018-10-02T21:53:02.460Z,7.07
2018-10-02T21:55:30.378Z,7.13
2018-10-02T21:57:58.134Z,6.67
2018-10-02T22:00:26.795Z,6.20
2018-10-02T22:02:54.603Z,6.80
2018-10-02T22:05:22.355Z,7.27
2018-10-02T22:07:50.066Z,7.30
2018-10-02T22:10:17.784Z,8.23
2018-10-02T22:12:45.577Z,9.37
2018-10-02T22:15:13.350Z,11.03
2018-10-02T22:17:41.083Z,12.97
2018-10-02T22:20:08.856Z,14.83
2018-10-02T22:22:36.591Z,15.47
2018-10-02T22:25:04.431Z,15.20
2018-10-02T22:27:32.263Z,16.87
2018-10-02T22:30:00.028Z,16.03
2018-10-02T22:32:27.768Z,14.97
2018-10-02T22:34:55.499Z,15.67
2018-10-02T22:37:23.283Z,14.40
2018-10-02T22:39:51.062Z,13.80
2018-10-02T22:42:18.790Z,10.27
2018-10-02T22:44:46.575Z,11.00
2018-10-02T22:47:14.391Z,11.87
2018-10-02T22:49:42.146Z,11.03
2018-10-02T22:52:09.842Z,11.60
2018-10-02T22:54:37.636Z,12.57
2018-10-02T22:57:05.432Z,12.90
2018-10-02T22:59:33.189Z,13.03
2018-10-02T23:02:00.916Z,12.67
2018-10-02T23:04:28.692Z,14.80
2018-10-02T23:06:56.480Z,13.63
2018-10-02T23:09:24.239Z,16.10
2018-10-02T23:11:52.009Z,16.53
2018-10-02T23:14:19.820Z,18.07
2018-10-02T23:16:47.689Z,18.17
2018-10-02T23:19:15.495Z,19.90
2018-10-02T23:21:43.243Z,18.03
2018-10-02T23:24:10.998Z,20.00
2018-10-02T23:26:38.755Z,19.73
2018-10-02T23:29:06.612Z,20.33
2018-10-02T23:31:34.363Z,19.93
2018-10-02T23:34:02.199Z,20.13
2018-10-02T23:36:29.923Z,20.83
2018-10-02T23:38:57.583Z,21.17
2018-10-02T23:41:25.428Z,22.13
2018-10-02T23:43:53.271Z,22.60
2018-10-02T23:46:21.014Z,22.63
2018-10-02T23:48:48.748Z,21.70
2018-10-02T23:51:16.491Z,21.60
2018-10-02T23:53:44.239Z,23.00
2018-10-02T23:56:12.010Z,21.97
2018-10-02T23:58:39.739Z,22.77
